createdAt,value
2019-03-01T00:01:21.358Z,9.20
2019-03-01T00:04:00.924Z,9.20
2019-03-01T00:06:34.759Z,9.20
2019-03-01T00:09:32.487Z,9.20
2019-03-01T00:12:31.787Z,9.20
2019-03-01T00:15:40.362Z,9.20
2019-03-01T00:18:31.559Z,9.20
2019-03-01T00:21:20.148Z,9.20
2019-03-01T00:23:58.378Z,9.20
2019-03-01T00:26:43.216Z,9.20
2019-03-01T00:29:46.964Z,9.20
2019-03-01T00:32:43.162Z,9.20
2019-03-01T00:35:46.464Z,9.20
2019-03-01T00:38:40.523Z,9.20
2019-03-01T00:41:35.531Z,9.20
2019-03-01T00:44:35.455Z,9.20
2019-03-01T00:47:04.465Z,9.20
2019-03-01T00:49:33.512Z,9.20
2019-03-01T00:52:02.711Z,9.20
2019-03-01T00:54:31.898Z,9.20
2019-03-01T00:57:01.035Z,9.20
2019-03-01T00:59:30.188Z,9.20
2019-03-01T01:01:59.599Z,9.20
2019-03-01T01:04:29.032Z,9.20
2019-03-01T01:06:58.171Z,9.20
2019-03-01T01:09:27.319Z,9.20
2019-03-01T01:11:56.483Z,9.20
2019-03-01T01:14:25.710Z,9.30
2019-03-01T01:16:54.943Z,9.30
2019-03-01T01:19:24.221Z,9.30
2019-03-01T01:21:53.458Z,9.30
2019-03-01T01:24:22.711Z,9.30
2019-03-01T01:26:51.815Z,9.30
2019-03-01T01:29:20.898Z,9.30
2019-03-01T01:31:49.864Z,9.30
2019-03-01T01:34:19.302Z,9.30
2019-03-01T01:36:48.460Z,9.30
2019-03-01T01:39:17.758Z,9.30
2019-03-01T01:41:46.908Z,9.30
2019-03-01T01:44:16.027Z,9.30
2019-03-01T01:46:45.395Z,9.30
2019-03-01T01:49:14.451Z,9.30
2019-03-01T01:51:43.675Z,9.30
2019-03-01T01:54:12.987Z,9.30
2019-03-01T01:56:42.092Z,9.30
2019-03-01T01:59:11.066Z,9.30
2019-03-01T02:01:40.382Z,9.30
2019-03-01T02:04:09.463Z,9.30
2019-03-01T02:06:38.615Z,9.30
2019-03-01T02:09:23.640Z,9.40
2019-03-01T02:11:52.892Z,9.40
2019-03-01T02:14:21.916Z,9.40
2019-03-01T02:16:50.938Z,9.40
2019-03-01T02:19:20.028Z,9.40
2019-03-01T02:21:49.107Z,9.40
2019-03-01T02:24:18.401Z,9.40
2019-03-01T02:26:47.439Z,9.40
2019-03-01T02:29:16.757Z,9.40
2019-03-01T02:31:51.442Z,9.40
2019-03-01T02:34:20.413Z,9.40
2019-03-01T02:36:49.803Z,9.40
2019-03-01T02:39:19.044Z,9.40
2019-03-01T02:41:48.084Z,9.40
2019-03-01T02:44:17.225Z,9.40
2019-03-01T02:46:46.551Z,9.40
2019-03-01T02:49:15.887Z,9.40
2019-03-01T02:51:44.933Z,9.40
2019-03-01T02:54:13.979Z,9.30
2019-03-01T02:56:43.006Z,9.30
2019-03-01T02:59:12.302Z,9.40
2019-03-01T03:01:41.345Z,9.40
2019-03-01T03:04:10.304Z,9.40
2019-03-01T03:06:56.560Z,9.30
2019-03-01T03:09:25.788Z,9.30
2019-03-01T03:11:54.838Z,9.30
2019-03-01T03:14:24.154Z,9.20
2019-03-01T03:16:53.272Z,9.20
2019-03-01T03:19:22.368Z,9.20
2019-03-01T03:21:51.419Z,9.20
2019-03-01T03:24:20.438Z,9.20
2019-03-01T03:26:49.531Z,9.10
2019-03-01T03:29:18.554Z,9.10
2019-03-01T03:31:47.583Z,9.00
2019-03-01T03:34:16.605Z,8.90
2019-03-01T03:36:45.976Z,8.90
2019-03-01T03:39:15.141Z,8.90
2019-03-01T03:41:44.375Z,8.80
2019-03-01T03:44:13.567Z,8.80
2019-03-01T03:46:43.090Z,8.80
2019-03-01T03:49:12.353Z,8.80
2019-03-01T03:51:41.469Z,8.70
2019-03-01T03:54:10.479Z,8.80
2019-03-01T03:56:39.678Z,8.70
2019-03-01T03:59:09.230Z,8.70
2019-03-01T04:01:38.492Z,8.70
2019-03-01T04:04:07.682Z,8.70
2019-03-01T04:06:37.089Z,8.70
2019-03-01T04:09:06.931Z,8.70
2019-03-01T04:11:35.955Z,8.70
2019-03-01T04:14:05.364Z,8.70
2019-03-01T04:16:34.531Z,8.70
2019-03-01T04:19:04.153Z,8.60
2019-03-01T04:21:33.536Z,8.70
2019-03-01T04:24:02.788Z,8.60
2019-03-01T04:26:31.963Z,8.70
2019-03-01T04:29:01.289Z,8.70
2019-03-01T04:31:30.692Z,8.70
2019-03-01T04:33:59.749Z,8.70
2019-03-01T04:36:28.882Z,8.70
2019-03-01T04:38:58.006Z,8.70
2019-03-01T04:41:27.016Z,8.60
2019-03-01T04:43:56.113Z,8.70
2019-03-01T04:46:25.324Z,8.60
2019-03-01T04:48:54.406Z,8.60
2019-03-01T04:51:23.474Z,8.60
2019-03-01T04:53:52.730Z,8.60
2019-03-01T04:56:21.910Z,8.60
2019-03-01T04:58:51.163Z,8.50
2019-03-01T05:01:20.222Z,8.50
2019-03-01T05:03:49.274Z,8.40
2019-03-01T05:06:18.419Z,8.50
2019-03-01T05:08:47.584Z,8.50
2019-03-01T05:11:17.351Z,8.50
2019-03-01T05:13:46.907Z,8.50
2019-03-01T05:16:19.130Z,8.40
2019-03-01T05:18:49.912Z,8.40
2019-03-01T05:21:19.099Z,8.40
2019-03-01T05:23:48.071Z,8.40
2019-03-01T05:26:17.082Z,8.50
2019-03-01T05:28:46.203Z,8.40
2019-03-01T05:31:15.341Z,8.40
2019-03-01T05:34:03.692Z,8.50
2019-03-01T05:36:32.744Z,8.40
2019-03-01T05:39:01.746Z,8.40
2019-03-01T05:41:31.112Z,8.40
2019-03-01T05:44:00.138Z,8.50
2019-03-01T05:46:29.457Z,8.50
2019-03-01T05:48:59.106Z,8.40
2019-03-01T05:51:28.286Z,8.40
2019-03-01T05:53:57.367Z,8.40
2019-03-01T05:56:26.788Z,8.40
2019-03-01T05:59:16.234Z,8.40
2019-03-01T06:02:22.028Z,8.40
2019-03-01T06:04:55.148Z,8.30
2019-03-01T06:07:49.476Z,8.30
2019-03-01T06:10:52.518Z,8.30
2019-03-01T06:13:36.527Z,8.40
2019-03-01T06:16:31.104Z,8.40
2019-03-01T06:19:24.044Z,8.40
2019-03-01T06:22:32.963Z,8.30
2019-03-01T06:25:38.946Z,8.30
2019-03-01T06:28:16.162Z,8.30
2019-03-01T06:31:22.863Z,8.30
2019-03-01T06:34:00.508Z,8.30
2019-03-01T06:37:12.209Z,8.30
2019-03-01T06:40:17.818Z,8.30
2019-03-01T06:42:53.720Z,8.30
2019-03-01T06:46:13.233Z,8.20
2019-03-01T06:48:53.353Z,8.20
2019-03-01T06:51:31.315Z,8.20
2019-03-01T06:54:00.589Z,8.10
2019-03-01T06:56:30.087Z,8.10
2019-03-01T06:59:04.147Z,8.10
2019-03-01T07:01:42.118Z,8.10
2019-03-01T07:04:20.835Z,8.10
2019-03-01T07:06:49.945Z,8.10
2019-03-01T07:09:19.070Z,8.10
2019-03-01T07:11:48.125Z,8.10
2019-03-01T07:14:17.171Z,8.00
2019-03-01T07:16:46.215Z,8.00
2019-03-01T07:19:15.320Z,8.00
2019-03-01T07:21:44.369Z,8.00
2019-03-01T07:24:13.741Z,7.90
2019-03-01T07:26:42.758Z,7.90
2019-03-01T07:29:11.891Z,8.00
2019-03-01T07:31:40.942Z,8.00
2019-03-01T07:34:10.017Z,8.00
2019-03-01T07:36:39.142Z,8.00
2019-03-01T07:39:09.920Z,8.00
2019-03-01T07:41:38.956Z,8.00
2019-03-01T07:44:08.231Z,8.00
2019-03-01T07:46:37.385Z,7.90
2019-03-01T07:49:06.499Z,7.90
2019-03-01T07:51:36.056Z,7.90
2019-03-01T07:54:05.274Z,7.90
2019-03-01T07:56:36.927Z,7.90
2019-03-01T07:59:05.573Z,7.90
2019-03-01T08:01:34.651Z,8.00
2019-03-01T08:04:03.748Z,8.00
2019-03-01T08:06:32.879Z,7.90
2019-03-01T08:09:01.943Z,7.90
2019-03-01T08:11:31.804Z,7.90
2019-03-01T08:14:01.835Z,7.90
2019-03-01T08:16:30.874Z,8.00
2019-03-01T08:18:59.932Z,7.90
2019-03-01T08:21:28.915Z,7.90
2019-03-01T08:23:57.928Z,8.00
2019-03-01T08:26:27.115Z,8.00
2019-03-01T08:28:58.575Z,7.90
2019-03-01T08:31:26.882Z,7.90
2019-03-01T08:33:55.996Z,7.90
2019-03-01T08:36:25.140Z,7.90
2019-03-01T08:38:54.166Z,7.90
2019-03-01T08:41:25.072Z,8.00
2019-03-01T08:43:54.263Z,8.00
2019-03-01T08:46:23.344Z,7.90
2019-03-01T08:48:52.365Z,7.90
2019-03-01T08:51:22.637Z,7.90
2019-03-01T08:53:52.543Z,8.00
2019-03-01T08:56:26.149Z,8.00
2019-03-01T08:58:52.784Z,8.00
2019-03-01T09:01:21.988Z,8.00
2019-03-01T09:03:55.150Z,8.00
2019-03-01T09:06:24.195Z,8.00
2019-03-01T09:08:53.347Z,8.00
2019-03-01T09:11:22.483Z,8.00
2019-03-01T09:13:51.504Z,8.00
2019-03-01T09:16:20.467Z,7.90
2019-03-01T09:18:50.082Z,7.90
2019-03-01T09:21:20.015Z,7.90
2019-03-01T09:23:52.071Z,7.80
2019-03-01T09:26:20.748Z,7.90
2019-03-01T09:28:49.871Z,7.80
2019-03-01T09:31:18.832Z,7.80
2019-03-01T09:33:47.831Z,7.90
2019-03-01T09:36:35.942Z,7.90
2019-03-01T09:39:08.177Z,7.90
2019-03-01T09:41:40.608Z,7.90
2019-03-01T09:44:08.196Z,7.90
2019-03-01T09:46:37.248Z,7.90
2019-03-01T09:49:06.491Z,7.90
2019-03-01T09:51:35.608Z,7.80
2019-03-01T09:54:06.529Z,7.90
2019-03-01T09:56:36.027Z,7.90
2019-03-01T09:59:05.367Z,7.90
2019-03-01T10:01:34.480Z,7.90
2019-03-01T10:04:03.756Z,7.90
2019-03-01T10:06:38.108Z,7.90
2019-03-01T10:09:05.629Z,7.90
2019-03-01T10:11:34.666Z,7.90
2019-03-01T10:14:03.864Z,7.90
2019-03-01T10:16:33.043Z,8.00
2019-03-01T10:19:02.104Z,8.00
2019-03-01T10:21:31.194Z,8.00
2019-03-01T10:24:00.468Z,8.00
2019-03-01T10:26:29.559Z,8.10
2019-03-01T10:28:58.531Z,8.10
2019-03-01T10:31:27.563Z,8.10
2019-03-01T10:33:56.859Z,8.20
2019-03-01T10:36:26.239Z,8.20
2019-03-01T10:38:55.747Z,8.10
2019-03-01T10:41:24.959Z,8.20
2019-03-01T10:43:54.009Z,8.20
2019-03-01T10:46:23.021Z,8.20
2019-03-01T10:48:52.192Z,8.20
2019-03-01T10:51:21.231Z,8.20
2019-03-01T10:53:50.252Z,8.20
2019-03-01T10:56:19.426Z,8.20
2019-03-01T10:58:48.536Z,8.20
2019-03-01T11:01:17.708Z,8.20
2019-03-01T11:03:46.790Z,8.30
2019-03-01T11:06:17.726Z,8.30
2019-03-01T11:08:47.115Z,8.30
2019-03-01T11:11:16.189Z,8.40
2019-03-01T11:13:45.409Z,8.40
2019-03-01T11:16:14.640Z,8.50
2019-03-01T11:18:45.703Z,8.60
2019-03-01T11:21:17.869Z,8.60
2019-03-01T11:23:48.524Z,8.60
2019-03-01T11:26:17.811Z,8.70
2019-03-01T11:28:47.014Z,8.70
2019-03-01T11:31:16.382Z,8.80
2019-03-01T11:33:45.568Z,8.90
2019-03-01T11:36:16.376Z,9.10
2019-03-01T11:38:45.464Z,9.30
2019-03-01T11:41:14.676Z,9.50
2019-03-01T11:43:48.560Z,9.70
2019-03-01T11:46:18.778Z,9.90
2019-03-01T11:48:47.872Z,10.20
2019-03-01T11:51:20.211Z,10.50
2019-03-01T11:53:49.427Z,10.60
2019-03-01T11:56:18.441Z,10.70
2019-03-01T11:58:47.556Z,10.60
2019-03-01T12:01:17.428Z,10.50
2019-03-01T12:03:46.931Z,10.40
2019-03-01T12:06:16.445Z,10.30
2019-03-01T12:09:08.051Z,10.20
2019-03-01T12:11:37.208Z,10.30
2019-03-01T12:14:06.438Z,10.30
2019-03-01T12:16:35.494Z,10.30
2019-03-01T12:19:04.532Z,10.30
2019-03-01T12:21:34.535Z,10.40
2019-03-01T12:24:03.760Z,10.40
2019-03-01T12:26:33.156Z,10.40
2019-03-01T12:29:07.502Z,10.40
2019-03-01T12:31:36.651Z,10.50
2019-03-01T12:34:05.915Z,10.60
2019-03-01T12:36:34.930Z,11.00
2019-03-01T12:39:06.001Z,11.20
2019-03-01T12:41:35.153Z,11.40
2019-03-01T12:44:04.423Z,11.60
2019-03-01T12:46:33.564Z,11.60
2019-03-01T12:49:02.923Z,11.50
2019-03-01T12:51:32.192Z,11.40
2019-03-01T12:54:01.247Z,11.30
2019-03-01T12:56:30.435Z,11.20
2019-03-01T12:58:59.625Z,11.00
2019-03-01T13:01:28.715Z,10.90
2019-03-01T13:03:57.857Z,10.80
2019-03-01T13:06:27.303Z,10.80
2019-03-01T13:08:56.433Z,10.80
2019-03-01T13:11:27.779Z,10.80
2019-03-01T13:14:15.998Z,10.90
2019-03-01T13:17:04.476Z,10.80
2019-03-01T13:19:57.656Z,10.80
2019-03-01T13:22:27.910Z,10.80
2019-03-01T13:24:56.943Z,10.90
2019-03-01T13:27:26.154Z,11.10
2019-03-01T13:29:58.643Z,11.40
2019-03-01T13:32:28.825Z,11.70
2019-03-01T13:34:59.301Z,11.80
2019-03-01T13:37:28.497Z,12.00
2019-03-01T13:39:59.112Z,12.00
2019-03-01T13:42:29.430Z,11.90
2019-03-01T13:44:58.505Z,11.90
2019-03-01T13:47:27.871Z,12.00
2019-03-01T13:49:56.971Z,12.10
2019-03-01T13:52:26.680Z,12.20
2019-03-01T13:54:57.035Z,12.20
2019-03-01T13:57:28.003Z,12.20
2019-03-01T13:59:57.123Z,12.30
2019-03-01T14:02:26.379Z,12.40
2019-03-01T14:04:55.556Z,12.40
2019-03-01T14:07:24.796Z,12.40
2019-03-01T14:09:53.771Z,12.40
2019-03-01T14:12:23.090Z,12.40
2019-03-01T14:14:54.271Z,12.40
2019-03-01T14:17:24.573Z,12.40
2019-03-01T14:22:44.055Z,12.40
2019-03-01T14:25:16.153Z,12.50
2019-03-01T14:27:45.368Z,12.50
2019-03-01T14:30:19.090Z,12.40
2019-03-01T14:32:48.197Z,12.40
2019-03-01T14:35:36.751Z,12.40
2019-03-01T14:38:11.614Z,12.40
2019-03-01T14:40:40.919Z,12.30
2019-03-01T14:43:09.943Z,12.30
2019-03-01T14:45:47.797Z,12.20
2019-03-01T14:48:16.901Z,12.10
2019-03-01T14:50:45.923Z,12.00
2019-03-01T14:53:14.964Z,11.90
2019-03-01T14:55:46.971Z,11.80
2019-03-01T14:58:23.567Z,11.80
2019-03-01T15:01:33.421Z,11.70
2019-03-01T15:04:03.562Z,11.60
2019-03-01T15:06:32.835Z,11.60
2019-03-01T15:09:01.903Z,11.60
2019-03-01T15:11:31.064Z,11.50
2019-03-01T15:14:00.119Z,11.40
2019-03-01T15:16:29.279Z,11.40
2019-03-01T15:18:58.567Z,11.40
2019-03-01T15:21:29.781Z,11.30
2019-03-01T15:24:00.089Z,11.20
2019-03-01T15:26:29.894Z,11.20
2019-03-01T15:28:59.213Z,11.20
2019-03-01T15:31:28.740Z,11.20
2019-03-01T15:34:00.163Z,11.10
2019-03-01T15:36:29.244Z,11.10
2019-03-01T15:39:05.804Z,11.00
2019-03-01T15:41:39.172Z,10.90
2019-03-01T15:44:27.869Z,10.90
2019-03-01T15:46:57.015Z,10.80
2019-03-01T15:49:28.829Z,10.80
2019-03-01T15:51:59.696Z,10.80
2019-03-01T15:54:28.796Z,10.70
2019-03-01T15:56:57.975Z,10.70
2019-03-01T15:59:27.216Z,10.70
2019-03-01T16:01:56.456Z,10.70
2019-03-01T16:04:25.678Z,10.70
2019-03-01T16:06:56.456Z,10.70
2019-03-01T16:09:26.391Z,10.70
2019-03-01T16:11:56.400Z,10.80
2019-03-01T16:14:27.140Z,10.80
2019-03-01T16:16:56.223Z,10.70
2019-03-01T16:19:25.239Z,10.70
2019-03-01T16:21:54.375Z,10.60
2019-03-01T16:24:23.516Z,10.60
2019-03-01T16:26:52.759Z,10.60
2019-03-01T16:29:22.273Z,10.60
2019-03-01T16:31:51.491Z,10.60
2019-03-01T16:34:20.864Z,10.60
2019-03-01T16:36:55.409Z,10.50
2019-03-01T16:39:24.781Z,10.50
2019-03-01T16:41:53.835Z,10.50
2019-03-01T16:44:23.872Z,10.40
2019-03-01T16:46:53.028Z,10.40
2019-03-01T16:49:23.519Z,10.30
2019-03-01T16:51:54.046Z,10.30
2019-03-01T16:54:23.879Z,10.40
2019-03-01T16:56:52.978Z,10.40
2019-03-01T16:59:22.132Z,10.30
2019-03-01T17:01:51.252Z,10.30
2019-03-01T17:04:20.695Z,10.30
2019-03-01T17:06:50.392Z,10.30
2019-03-01T17:09:19.731Z,10.20
2019-03-01T17:11:48.944Z,10.20
2019-03-01T17:14:18.258Z,10.20
2019-03-01T17:16:47.619Z,10.20
2019-03-01T17:19:16.760Z,10.10
2019-03-01T17:21:50.584Z,10.00
2019-03-01T17:24:16.571Z,10.00
2019-03-01T17:26:45.751Z,10.00
2019-03-01T17:29:14.915Z,9.90
2019-03-01T17:31:44.011Z,9.90
2019-03-01T17:34:13.003Z,9.80
2019-03-01T17:36:42.152Z,9.80
2019-03-01T17:39:11.399Z,9.80
2019-03-01T17:41:44.683Z,9.70
2019-03-01T17:44:11.359Z,9.70
2019-03-01T17:46:40.329Z,9.70
2019-03-01T17:49:09.343Z,9.70
2019-03-01T17:51:38.436Z,9.60
2019-03-01T17:54:07.794Z,9.60
2019-03-01T17:56:36.893Z,9.70
2019-03-01T17:59:08.228Z,9.70
2019-03-01T18:01:38.998Z,9.70
2019-03-01T18:04:08.111Z,9.60
2019-03-01T18:06:37.960Z,9.60
2019-03-01T18:09:16.171Z,9.50
2019-03-01T18:11:44.492Z,9.50
2019-03-01T18:14:14.599Z,9.50
2019-03-01T18:16:43.644Z,9.50
2019-03-01T18:19:12.628Z,9.50
2019-03-01T18:21:41.785Z,9.50
2019-03-01T18:24:11.105Z,9.50
2019-03-01T18:26:41.969Z,9.40
2019-03-01T18:29:11.051Z,9.50
2019-03-01T18:31:59.208Z,9.50
2019-03-01T18:34:29.760Z,9.40
2019-03-01T18:37:03.735Z,9.40
2019-03-01T18:39:32.790Z,9.40
2019-03-01T18:42:02.457Z,9.30
2019-03-01T18:44:32.503Z,9.30
2019-03-01T18:47:01.976Z,9.30
2019-03-01T18:49:31.218Z,9.20
2019-03-01T18:52:00.492Z,9.30
2019-03-01T18:54:29.588Z,9.30
2019-03-01T18:57:00.753Z,9.30
2019-03-01T18:59:29.338Z,9.30
2019-03-01T19:01:58.487Z,9.30
2019-03-01T19:04:29.582Z,9.40
2019-03-01T19:06:58.625Z,9.30
2019-03-01T19:09:27.675Z,9.30
2019-03-01T19:11:57.247Z,9.50
2019-03-01T19:14:26.418Z,9.60
2019-03-01T19:16:56.003Z,9.70
2019-03-01T19:19:29.794Z,9.80
2019-03-01T19:21:56.321Z,9.90
2019-03-01T19:24:25.801Z,9.90
2019-03-01T19:26:55.513Z,10.00
2019-03-01T19:29:25.125Z,10.00
2019-03-01T19:31:54.791Z,10.10
2019-03-01T19:35:16.892Z,10.10
2019-03-01T19:38:21.841Z,10.10
2019-03-01T19:43:26.872Z,10.20
2019-03-01T19:45:56.395Z,10.20
2019-03-01T19:48:34.448Z,10.20
2019-03-01T19:51:07.286Z,10.20
2019-03-01T19:53:42.588Z,10.30
2019-03-01T19:56:11.891Z,10.20
2019-03-01T19:58:55.713Z,10.00
2019-03-01T20:01:43.357Z,9.90
2019-03-01T20:04:21.884Z,9.80
2019-03-01T20:07:08.529Z,9.60
2019-03-01T20:10:02.443Z,9.50
2019-03-01T20:15:51.843Z,9.10
2019-03-01T20:18:50.736Z,9.00
2019-03-01T20:21:47.545Z,9.00
2019-03-01T20:24:47.013Z,9.00
2019-03-01T20:30:30.955Z,8.90
2019-03-01T20:33:04.173Z,8.90
2019-03-01T20:36:18.801Z,8.90
2019-03-01T20:38:48.380Z,8.90
2019-03-01T20:41:17.839Z,8.90
2019-03-01T20:44:06.108Z,8.90
2019-03-01T20:46:35.843Z,8.90
2019-03-01T20:49:05.409Z,8.90
2019-03-01T20:51:35.948Z,8.90
2019-03-01T20:54:05.405Z,8.90
2019-03-01T20:56:43.821Z,8.90
2019-03-01T20:59:19.423Z,8.80
2019-03-01T21:01:56.187Z,8.90
2019-03-01T21:04:53.200Z,8.90
2019-03-01T21:07:47.783Z,8.90
2019-03-01T21:10:19.959Z,8.80
2019-03-01T21:12:49.095Z,8.80
2019-03-01T21:15:18.381Z,8.70
2019-03-01T21:17:47.554Z,8.70
2019-03-01T21:20:19.633Z,8.70
2019-03-01T21:22:47.730Z,8.70
2019-03-01T21:25:16.789Z,8.70
2019-03-01T21:27:47.469Z,8.70
2019-03-01T21:30:24.126Z,8.70
2019-03-01T21:32:53.511Z,8.70
2019-03-01T21:35:22.688Z,8.70
2019-03-01T21:37:51.944Z,8.70
2019-03-01T21:40:21.152Z,8.70
2019-03-01T21:42:52.990Z,8.70
2019-03-01T21:45:21.679Z,8.70
2019-03-01T21:47:51.580Z,8.70
2019-03-01T21:50:20.708Z,8.70
2019-03-01T21:52:49.824Z,8.60
2019-03-01T21:55:18.780Z,8.60
2019-03-01T21:57:47.924Z,8.60
2019-03-01T22:00:18.900Z,8.60
2019-03-01T22:02:48.952Z,8.70
2019-03-01T22:05:18.684Z,8.60
2019-03-01T22:07:47.781Z,8.60
2019-03-01T22:10:16.923Z,8.60
2019-03-01T22:12:46.042Z,8.60
2019-03-01T22:15:17.212Z,8.60
2019-03-01T22:17:48.752Z,8.60
2019-03-01T22:20:17.138Z,8.60
2019-03-01T22:22:46.051Z,8.50
2019-03-01T22:25:15.143Z,8.50
2019-03-01T22:27:44.235Z,8.50
2019-03-01T22:30:15.542Z,8.60
2019-03-01T22:32:45.414Z,8.50
2019-03-01T22:35:15.345Z,8.50
2019-03-01T22:37:44.290Z,8.50
2019-03-01T22:40:13.394Z,8.50
2019-03-01T22:42:45.727Z,8.50
2019-03-01T22:45:14.603Z,8.50
2019-03-01T22:47:43.711Z,8.50
2019-03-01T22:50:14.031Z,8.40
2019-03-01T22:52:43.130Z,8.40
2019-03-01T22:55:13.409Z,8.50
2019-03-01T22:57:44.758Z,8.50
2019-03-01T23:01:08.323Z,8.50
2019-03-01T23:03:37.420Z,8.50
2019-03-01T23:06:06.410Z,8.40
2019-03-01T23:08:36.393Z,8.50
2019-03-01T23:11:05.656Z,8.40
2019-03-01T23:13:34.578Z,8.40
2019-03-01T23:16:03.543Z,8.30
2019-03-01T23:18:32.743Z,8.30
2019-03-01T23:21:01.998Z,8.30
2019-03-01T23:23:31.030Z,8.40
2019-03-01T23:26:00.065Z,8.40
2019-03-01T23:28:29.059Z,8.40
2019-03-01T23:31:00.549Z,8.40
2019-03-01T23:33:31.632Z,8.40
2019-03-01T23:35:59.371Z,8.40
2019-03-01T23:38:28.630Z,8.30
2019-03-01T23:40:57.531Z,8.30
2019-03-01T23:43:27.518Z,8.30
2019-03-01T23:45:57.219Z,8.30
2019-03-01T23:48:26.238Z,8.20
2019-03-01T23:50:55.411Z,8.20
2019-03-01T23:53:24.350Z,8.20
2019-03-01T23:55:54.689Z,8.20
2019-03-01T23:58:25.690Z,8.20
